sensor_id;sensor_type;location;lat;lon;timestamp;P1;durP1;ratioP1;P2;durP2;ratioP2
10096;SDS011;5087;42.662;23.466;2023-06-10T00:00:00;0.00;;;0.00;;
10096;SDS011;5087;42.662;23.466;2023-06-10T00:02:37;0.00;;;0.00;;
10096;SDS011;5087;42.662;23.466;2023-06-10T00:05:07;0.00;;;0.00;;
10096;SDS011;5087;42.662;23.466;2023-06-10T00:07:36;0.20;;;0.20;;
10096;SDS011;5087;42.662;23.466;2023-06-10T00:10:04;0.20;;;0.20;;
10096;SDS011;5087;42.662;23.466;2023-06-10T00:12:32;0.00;;;0.00;;
10096;SDS011;5087;42.662;23.466;2023-06-10T00:15:03;0.00;;;0.00;;
10096;SDS011;5087;42.662;23.466;2023-06-10T00:17:31;0.00;;;0.00;;
10096;SDS011;5087;42.662;23.466;2023-06-10T00:19:59;0.00;;;0.00;;
10096;SDS011;5087;42.662;23.466;2023-06-10T00:22:31;0.00;;;0.00;;
10096;SDS011;5087;42.662;23.466;2023-06-10T00:24:59;0.00;;;0.00;;
10096;SDS011;5087;42.662;23.466;2023-06-10T00:27:26;0.00;;;0.00;;
10096;SDS011;5087;42.662;23.466;2023-06-10T00:29:56;0.20;;;0.20;;
10096;SDS011;5087;42.662;23.466;2023-06-10T00:32:24;0.00;;;0.00;;
10096;SDS011;5087;42.662;23.466;2023-06-10T00:34:51;0.00;;;0.00;;
10096;SDS011;5087;42.662;23.466;2023-06-10T00:37:18;0.00;;;0.00;;
10096;SDS011;5087;42.662;23.466;2023-06-10T00:39:47;0.30;;;0.30;;
10096;SDS011;5087;42.662;23.466;2023-06-10T00:42:14;0.10;;;0.10;;
10096;SDS011;5087;42.662;23.466;2023-06-10T00:44:41;0.10;;;0.10;;
10096;SDS011;5087;42.662;23.466;2023-06-10T00:47:09;0.00;;;0.00;;
10096;SDS011;5087;42.662;23.466;2023-06-10T00:49:36;0.00;;;0.00;;
10096;SDS011;5087;42.662;23.466;2023-06-10T00:52:04;0.00;;;0.00;;
10096;SDS011;5087;42.662;23.466;2023-06-10T00:54:35;0.00;;;0.00;;
10096;SDS011;5087;42.662;23.466;2023-06-10T00:57:04;0.00;;;0.00;;
10096;SDS011;5087;42.662;23.466;2023-06-10T00:59:34;0.00;;;0.00;;
10096;SDS011;5087;42.662;23.466;2023-06-10T01:02:01;0.00;;;0.00;;
10096;SDS011;5087;42.662;23.466;2023-06-10T01:04:30;0.00;;;0.00;;
10096;SDS011;5087;42.662;23.466;2023-06-10T01:07:00;0.07;;;0.07;;
10096;SDS011;5087;42.662;23.466;2023-06-10T01:09:42;0.00;;;0.00;;
10096;SDS011;5087;42.662;23.466;2023-06-10T01:12:19;0.20;;;0.10;;
10096;SDS011;5087;42.662;23.466;2023-06-10T01:14:49;0.00;;;0.00;;
10096;SDS011;5087;42.662;23.466;2023-06-10T01:17:18;0.00;;;0.00;;
10096;SDS011;5087;42.662;23.466;2023-06-10T01:19:52;0.00;;;0.00;;
10096;SDS011;5087;42.662;23.466;2023-06-10T01:22:23;0.00;;;0.00;;
10096;SDS011;5087;42.662;23.466;2023-06-10T01:24:53;0.00;;;0.00;;
10096;SDS011;5087;42.662;23.466;2023-06-10T01:27:25;0.00;;;0.00;;
10096;SDS011;5087;42.662;23.466;2023-06-10T01:29:58;0.00;;;0.00;;
10096;SDS011;5087;42.662;23.466;2023-06-10T01:32:30;0.10;;;0.10;;
10096;SDS011;5087;42.662;23.466;2023-06-10T01:35:01;0.10;;;0.10;;
10096;SDS011;5087;42.662;23.466;2023-06-10T01:37:30;0.00;;;0.00;;
10096;SDS011;5087;42.662;23.466;2023-06-10T01:40:01;0.00;;;0.00;;
10096;SDS011;5087;42.662;23.466;2023-06-10T01:42:31;0.00;;;0.00;;
10096;SDS011;5087;42.662;23.466;2023-06-10T01:44:59;0.00;;;0.00;;
10096;SDS011;5087;42.662;23.466;2023-06-10T01:47:26;0.00;;;0.00;;
10096;SDS011;5087;42.662;23.466;2023-06-10T01:49:53;0.00;;;0.00;;
10096;SDS011;5087;42.662;23.466;2023-06-10T01:52:20;0.20;;;0.20;;
10096;SDS011;5087;42.662;23.466;2023-06-10T01:54:49;0.00;;;0.00;;
10096;SDS011;5087;42.662;23.466;2023-06-10T01:57:16;0.00;;;0.00;;
10096;SDS011;5087;42.662;23.466;2023-06-10T01:59:43;0.00;;;0.00;;
10096;SDS011;5087;42.662;23.466;2023-06-10T02:02:11;0.10;;;0.10;;
10096;SDS011;5087;42.662;23.466;2023-06-10T02:04:38;0.00;;;0.00;;
10096;SDS011;5087;42.662;23.466;2023-06-10T02:07:05;0.00;;;0.00;;
10096;SDS011;5087;42.662;23.466;2023-06-10T02:09:32;0.00;;;0.00;;
10096;SDS011;5087;42.662;23.466;2023-06-10T02:12:03;0.00;;;0.00;;
10096;SDS011;5087;42.662;23.466;2023-06-10T02:14:33;0.00;;;0.00;;
10096;SDS011;5087;42.662;23.466;2023-06-10T02:17:00;0.00;;;0.00;;
10096;SDS011;5087;42.662;23.466;2023-06-10T02:19:27;0.10;;;0.10;;
10096;SDS011;5087;42.662;23.466;2023-06-10T02:21:56;0.00;;;0.00;;
10096;SDS011;5087;42.662;23.466;2023-06-10T02:24:26;0.00;;;0.00;;
10096;SDS011;5087;42.662;23.466;2023-06-10T02:26:53;0.00;;;0.00;;
10096;SDS011;5087;42.662;23.466;2023-06-10T02:29:22;0.00;;;0.00;;
10096;SDS011;5087;42.662;23.466;2023-06-10T02:31:51;0.07;;;0.07;;
10096;SDS011;5087;42.662;23.466;2023-06-10T02:34:19;0.10;;;0.10;;
10096;SDS011;5087;42.662;23.466;2023-06-10T02:36:47;0.30;;;0.30;;
10096;SDS011;5087;42.662;23.466;2023-06-10T02:39:18;0.00;;;0.00;;
10096;SDS011;5087;42.662;23.466;2023-06-10T02:41:46;0.00;;;0.00;;
10096;SDS011;5087;42.662;23.466;2023-06-10T02:44:15;0.00;;;0.00;;
10096;SDS011;5087;42.662;23.466;2023-06-10T02:46:46;0.33;;;0.33;;
10096;SDS011;5087;42.662;23.466;2023-06-10T02:49:13;0.00;;;0.00;;
10096;SDS011;5087;42.662;23.466;2023-06-10T02:51:42;0.00;;;0.00;;
10096;SDS011;5087;42.662;23.466;2023-06-10T02:54:09;0.00;;;0.00;;
10096;SDS011;5087;42.662;23.466;2023-06-10T02:56:36;0.00;;;0.00;;
10096;SDS011;5087;42.662;23.466;2023-06-10T02:59:11;0.10;;;0.00;;
10096;SDS011;5087;42.662;23.466;2023-06-10T03:01:38;0.00;;;0.00;;
10096;SDS011;5087;42.662;23.466;2023-06-10T03:04:10;0.00;;;0.00;;
10096;SDS011;5087;42.662;23.466;2023-06-10T03:06:44;0.03;;;0.03;;
10096;SDS011;5087;42.662;23.466;2023-06-10T03:09:19;0.00;;;0.00;;
10096;SDS011;5087;42.662;23.466;2023-06-10T03:11:50;0.00;;;0.00;;
10096;SDS011;5087;42.662;23.466;2023-06-10T03:14:18;1.80;;;0.50;;
10096;SDS011;5087;42.662;23.466;2023-06-10T03:16:45;0.07;;;0.07;;
10096;SDS011;5087;42.662;23.466;2023-06-10T03:19:15;0.00;;;0.00;;
10096;SDS011;5087;42.662;23.466;2023-06-10T03:21:49;0.00;;;0.00;;
10096;SDS011;5087;42.662;23.466;2023-06-10T03:24:35;0.00;;;0.00;;
10096;SDS011;5087;42.662;23.466;2023-06-10T03:27:07;0.00;;;0.00;;
10096;SDS011;5087;42.662;23.466;2023-06-10T03:29:37;0.00;;;0.00;;
10096;SDS011;5087;42.662;23.466;2023-06-10T03:32:06;0.00;;;0.00;;
10096;SDS011;5087;42.662;23.466;2023-06-10T03:34:36;0.00;;;0.00;;
10096;SDS011;5087;42.662;23.466;2023-06-10T03:37:04;0.00;;;0.00;;
10096;SDS011;5087;42.662;23.466;2023-06-10T03:39:32;0.00;;;0.00;;
10096;SDS011;5087;42.662;23.466;2023-06-10T03:42:01;0.00;;;0.00;;
10096;SDS011;5087;42.662;23.466;2023-06-10T03:44:30;0.00;;;0.00;;
10096;SDS011;5087;42.662;23.466;2023-06-10T03:46:57;0.10;;;0.10;;
10096;SDS011;5087;42.662;23.466;2023-06-10T03:49:29;0.00;;;0.00;;
10096;SDS011;5087;42.662;23.466;2023-06-10T03:52:01;0.00;;;0.00;;
10096;SDS011;5087;42.662;23.466;2023-06-10T03:54:29;0.07;;;0.07;;
10096;SDS011;5087;42.662;23.466;2023-06-10T03:56:57;0.30;;;0.30;;
10096;SDS011;5087;42.662;23.466;2023-06-10T03:59:27;0.20;;;0.10;;
10096;SDS011;5087;42.662;23.466;2023-06-10T04:01:54;0.00;;;0.00;;
10096;SDS011;5087;42.662;23.466;2023-06-10T04:04:22;0.00;;;0.00;;
10096;SDS011;5087;42.662;23.466;2023-06-10T04:06:50;0.00;;;0.00;;
10096;SDS011;5087;42.662;23.466;2023-06-10T04:09:19;0.30;;;0.30;;
10096;SDS011;5087;42.662;23.466;2023-06-10T04:11:47;0.00;;;0.00;;
10096;SDS011;5087;42.662;23.466;2023-06-10T04:14:14;0.00;;;0.00;;
10096;SDS011;5087;42.662;23.466;2023-06-10T04:16:42;0.00;;;0.00;;
10096;SDS011;5087;42.662;23.466;2023-06-10T04:19:11;0.00;;;0.00;;
10096;SDS011;5087;42.662;23.466;2023-06-10T04:21:39;0.00;;;0.00;;
10096;SDS011;5087;42.662;23.466;2023-06-10T04:24:06;0.00;;;0.00;;
10096;SDS011;5087;42.662;23.466;2023-06-10T04:26:38;0.00;;;0.00;;
10096;SDS011;5087;42.662;23.466;2023-06-10T04:29:06;0.00;;;0.00;;
10096;SDS011;5087;42.662;23.466;2023-06-10T04:31:34;0.00;;;0.00;;
10096;SDS011;5087;42.662;23.466;2023-06-10T04:34:01;0.20;;;0.20;;
10096;SDS011;5087;42.662;23.466;2023-06-10T04:36:29;0.00;;;0.00;;
10096;SDS011;5087;42.662;23.466;2023-06-10T04:38:56;0.00;;;0.00;;
10096;SDS011;5087;42.662;23.466;2023-06-10T04:41:23;0.03;;;0.03;;
10096;SDS011;5087;42.662;23.466;2023-06-10T05:01:07;0.00;;;0.00;;
10096;SDS011;5087;42.662;23.466;2023-06-10T05:03:35;1.50;;;0.53;;
10096;SDS011;5087;42.662;23.466;2023-06-10T05:06:03;0.10;;;0.10;;
10096;SDS011;5087;42.662;23.466;2023-06-10T05:08:30;0.00;;;0.00;;
10096;SDS011;5087;42.662;23.466;2023-06-10T05:10:58;0.00;;;0.00;;
10096;SDS011;5087;42.662;23.466;2023-06-10T05:13:32;0.00;;;0.00;;
10096;SDS011;5087;42.662;23.466;2023-06-10T05:16:03;0.03;;;0.03;;
10096;SDS011;5087;42.662;23.466;2023-06-10T05:18:34;0.00;;;0.00;;
10096;SDS011;5087;42.662;23.466;2023-06-10T05:21:04;0.40;;;0.40;;
10096;SDS011;5087;42.662;23.466;2023-06-10T05:23:35;0.00;;;0.00;;
10096;SDS011;5087;42.662;23.466;2023-06-10T05:26:09;0.00;;;0.00;;
10096;SDS011;5087;42.662;23.466;2023-06-10T05:28:39;0.00;;;0.00;;
10096;SDS011;5087;42.662;23.466;2023-06-10T05:31:07;0.00;;;0.00;;
10096;SDS011;5087;42.662;23.466;2023-06-10T05:33:47;0.03;;;0.03;;
10096;SDS011;5087;42.662;23.466;2023-06-10T05:36:29;0.57;;;0.50;;
10096;SDS011;5087;42.662;23.466;2023-06-10T05:39:01;0.00;;;0.00;;
10096;SDS011;5087;42.662;23.466;2023-06-10T05:41:33;0.00;;;0.00;;
10096;SDS011;5087;42.662;23.466;2023-06-10T05:44:02;0.00;;;0.00;;
10096;SDS011;5087;42.662;23.466;2023-06-10T05:46:30;0.00;;;0.00;;
10096;SDS011;5087;42.662;23.466;2023-06-10T05:49:06;0.00;;;0.00;;
10096;SDS011;5087;42.662;23.466;2023-06-10T05:51:33;0.00;;;0.00;;
10096;SDS011;5087;42.662;23.466;2023-06-10T05:54:02;0.00;;;0.00;;
10096;SDS011;5087;42.662;23.466;2023-06-10T05:56:32;0.00;;;0.00;;
10096;SDS011;5087;42.662;23.466;2023-06-10T05:59:00;0.20;;;0.20;;
10096;SDS011;5087;42.662;23.466;2023-06-10T06:01:27;0.10;;;0.10;;
10096;SDS011;5087;42.662;23.466;2023-06-10T06:03:54;0.20;;;0.20;;
10096;SDS011;5087;42.662;23.466;2023-06-10T06:06:23;0.40;;;0.40;;
10096;SDS011;5087;42.662;23.466;2023-06-10T06:08:53;0.20;;;0.20;;
10096;SDS011;5087;42.662;23.466;2023-06-10T06:11:20;0.30;;;0.30;;
10096;SDS011;5087;42.662;23.466;2023-06-10T06:13:48;0.20;;;0.20;;
10096;SDS011;5087;42.662;23.466;2023-06-10T06:16:16;0.40;;;0.40;;
10096;SDS011;5087;42.662;23.466;2023-06-10T06:18:47;0.20;;;0.20;;
10096;SDS011;5087;42.662;23.466;2023-06-10T06:21:17;0.30;;;0.30;;
10096;SDS011;5087;42.662;23.466;2023-06-10T06:23:46;0.30;;;0.30;;
10096;SDS011;5087;42.662;23.466;2023-06-10T06:26:13;0.60;;;0.60;;
10096;SDS011;5087;42.662;23.466;2023-06-10T06:28:41;0.50;;;0.50;;
10096;SDS011;5087;42.662;23.466;2023-06-10T06:31:08;0.50;;;0.50;;
10096;SDS011;5087;42.662;23.466;2023-06-10T06:33:40;0.50;;;0.50;;
10096;SDS011;5087;42.662;23.466;2023-06-10T06:36:07;0.80;;;0.80;;
10096;SDS011;5087;42.662;23.466;2023-06-10T06:38:34;0.70;;;0.70;;
10096;SDS011;5087;42.662;23.466;2023-06-10T06:41:04;1.00;;;1.00;;
10096;SDS011;5087;42.662;23.466;2023-06-10T06:43:33;1.13;;;1.13;;
10096;SDS011;5087;42.662;23.466;2023-06-10T06:46:21;1.43;;;1.20;;
10096;SDS011;5087;42.662;23.466;2023-06-10T06:48:48;0.80;;;0.80;;
10096;SDS011;5087;42.662;23.466;2023-06-10T06:51:16;0.97;;;0.97;;
10096;SDS011;5087;42.662;23.466;2023-06-10T06:53:43;0.80;;;0.80;;
10096;SDS011;5087;42.662;23.466;2023-06-10T06:56:13;0.80;;;0.80;;
10096;SDS011;5087;42.662;23.466;2023-06-10T06:58:40;0.90;;;0.90;;
10096;SDS011;5087;42.662;23.466;2023-06-10T07:01:08;1.00;;;1.00;;
10096;SDS011;5087;42.662;23.466;2023-06-10T07:03:35;0.90;;;0.90;;
10096;SDS011;5087;42.662;23.466;2023-06-10T07:06:02;0.90;;;0.90;;
10096;SDS011;5087;42.662;23.466;2023-06-10T07:08:30;1.10;;;1.10;;
10096;SDS011;5087;42.662;23.466;2023-06-10T07:10:57;1.20;;;1.20;;
10096;SDS011;5087;42.662;23.466;2023-06-10T07:13:26;1.10;;;1.10;;
10096;SDS011;5087;42.662;23.466;2023-06-10T07:15:53;1.30;;;1.30;;
10096;SDS011;5087;42.662;23.466;2023-06-10T07:18:20;1.03;;;1.03;;
10096;SDS011;5087;42.662;23.466;2023-06-10T07:20:47;1.30;;;1.30;;
10096;SDS011;5087;42.662;23.466;2023-06-10T07:23:15;1.70;;;1.70;;
10096;SDS011;5087;42.662;23.466;2023-06-10T07:25:45;1.30;;;1.30;;
10096;SDS011;5087;42.662;23.466;2023-06-10T07:28:12;1.50;;;1.50;;
10096;SDS011;5087;42.662;23.466;2023-06-10T07:30:41;1.50;;;1.50;;
10096;SDS011;5087;42.662;23.466;2023-06-10T07:33:09;1.60;;;1.60;;
10096;SDS011;5087;42.662;23.466;2023-06-10T07:35:36;1.50;;;1.50;;
10096;SDS011;5087;42.662;23.466;2023-06-10T07:38:03;1.40;;;1.40;;
10096;SDS011;5087;42.662;23.466;2023-06-10T07:40:31;1.40;;;1.40;;
10096;SDS011;5087;42.662;23.466;2023-06-10T07:42:58;1.87;;;1.87;;
10096;SDS011;5087;42.662;23.466;2023-06-10T07:45:26;1.67;;;1.67;;
10096;SDS011;5087;42.662;23.466;2023-06-10T07:47:54;1.67;;;1.67;;
10096;SDS011;5087;42.662;23.466;2023-06-10T07:50:22;2.00;;;2.00;;
10096;SDS011;5087;42.662;23.466;2023-06-10T07:52:49;1.80;;;1.80;;
10096;SDS011;5087;42.662;23.466;2023-06-10T07:55:16;1.80;;;1.80;;
10096;SDS011;5087;42.662;23.466;2023-06-10T07:57:44;2.10;;;2.10;;
10096;SDS011;5087;42.662;23.466;2023-06-10T08:00:11;1.90;;;1.90;;
10096;SDS011;5087;42.662;23.466;2023-06-10T08:02:39;2.00;;;2.00;;
10096;SDS011;5087;42.662;23.466;2023-06-10T08:05:08;1.73;;;1.73;;
10096;SDS011;5087;42.662;23.466;2023-06-10T08:07:35;2.00;;;2.00;;
10096;SDS011;5087;42.662;23.466;2023-06-10T08:10:03;1.90;;;1.90;;
10096;SDS011;5087;42.662;23.466;2023-06-10T08:12:31;2.07;;;2.07;;
10096;SDS011;5087;42.662;23.466;2023-06-10T08:14:59;1.60;;;1.60;;
10096;SDS011;5087;42.662;23.466;2023-06-10T08:17:26;1.50;;;1.50;;
10096;SDS011;5087;42.662;23.466;2023-06-10T08:19:53;1.67;;;1.67;;
10096;SDS011;5087;42.662;23.466;2023-06-10T08:22:22;1.50;;;1.50;;
10096;SDS011;5087;42.662;23.466;2023-06-10T08:24:49;1.50;;;1.50;;
10096;SDS011;5087;42.662;23.466;2023-06-10T08:27:19;1.40;;;1.40;;
10096;SDS011;5087;42.662;23.466;2023-06-10T08:29:47;1.30;;;1.30;;
10096;SDS011;5087;42.662;23.466;2023-06-10T08:32:17;1.20;;;1.20;;
10096;SDS011;5087;42.662;23.466;2023-06-10T08:34:44;1.07;;;1.07;;
10096;SDS011;5087;42.662;23.466;2023-06-10T08:37:11;1.10;;;1.10;;
10096;SDS011;5087;42.662;23.466;2023-06-10T08:39:40;1.33;;;1.33;;
10096;SDS011;5087;42.662;23.466;2023-06-10T08:42:10;1.17;;;1.17;;
10096;SDS011;5087;42.662;23.466;2023-06-10T08:44:44;1.07;;;1.07;;
10096;SDS011;5087;42.662;23.466;2023-06-10T08:47:13;1.10;;;1.10;;
10096;SDS011;5087;42.662;23.466;2023-06-10T08:49:43;1.13;;;1.13;;
10096;SDS011;5087;42.662;23.466;2023-06-10T08:52:14;1.23;;;1.23;;
10096;SDS011;5087;42.662;23.466;2023-06-10T08:54:46;1.17;;;1.17;;
10096;SDS011;5087;42.662;23.466;2023-06-10T08:57:18;1.10;;;1.10;;
10096;SDS011;5087;42.662;23.466;2023-06-10T08:59:47;1.03;;;1.03;;
10096;SDS011;5087;42.662;23.466;2023-06-10T09:02:15;0.70;;;0.70;;
10096;SDS011;5087;42.662;23.466;2023-06-10T09:04:46;0.60;;;0.60;;
10096;SDS011;5087;42.662;23.466;2023-06-10T09:07:14;0.40;;;0.40;;
10096;SDS011;5087;42.662;23.466;2023-06-10T09:09:45;0.20;;;0.20;;
10096;SDS011;5087;42.662;23.466;2023-06-10T09:12:17;0.20;;;0.20;;
10096;SDS011;5087;42.662;23.466;2023-06-10T09:14:47;0.17;;;0.17;;
10096;SDS011;5087;42.662;23.466;2023-06-10T09:17:16;0.20;;;0.20;;
10096;SDS011;5087;42.662;23.466;2023-06-10T09:19:43;0.13;;;0.13;;
10096;SDS011;5087;42.662;23.466;2023-06-10T09:22:17;0.10;;;0.10;;
10096;SDS011;5087;42.662;23.466;2023-06-10T09:25:03;0.10;;;0.10;;
10096;SDS011;5087;42.662;23.466;2023-06-10T09:27:43;0.30;;;0.30;;
10096;SDS011;5087;42.662;23.466;2023-06-10T09:30:23;0.40;;;0.40;;
10096;SDS011;5087;42.662;23.466;2023-06-10T09:32:53;0.30;;;0.30;;
10096;SDS011;5087;42.662;23.466;2023-06-10T09:35:22;0.20;;;0.20;;
10096;SDS011;5087;42.662;23.466;2023-06-10T09:37:57;0.13;;;0.13;;
10096;SDS011;5087;42.662;23.466;2023-06-10T09:40:34;0.17;;;0.17;;
10096;SDS011;5087;42.662;23.466;2023-06-10T09:43:22;0.20;;;0.20;;
10096;SDS011;5087;42.662;23.466;2023-06-10T09:45:50;0.17;;;0.17;;
10096;SDS011;5087;42.662;23.466;2023-06-10T09:48:19;0.10;;;0.10;;
10096;SDS011;5087;42.662;23.466;2023-06-10T09:50:53;0.20;;;0.20;;
10096;SDS011;5087;42.662;23.466;2023-06-10T09:53:21;0.20;;;0.20;;
10096;SDS011;5087;42.662;23.466;2023-06-10T09:55:51;0.20;;;0.20;;
10096;SDS011;5087;42.662;23.466;2023-06-10T09:58:33;0.67;;;0.67;;
10096;SDS011;5087;42.662;23.466;2023-06-10T10:01:06;0.27;;;0.27;;
10096;SDS011;5087;42.662;23.466;2023-06-10T10:03:44;0.30;;;0.30;;
10096;SDS011;5087;42.662;23.466;2023-06-10T10:06:14;0.20;;;0.20;;
10096;SDS011;5087;42.662;23.466;2023-06-10T10:08:42;0.67;;;0.67;;
10096;SDS011;5087;42.662;23.466;2023-06-10T10:11:12;0.20;;;0.20;;
10096;SDS011;5087;42.662;23.466;2023-06-10T10:13:44;0.20;;;0.20;;
10096;SDS011;5087;42.662;23.466;2023-06-10T10:16:16;0.20;;;0.20;;
10096;SDS011;5087;42.662;23.466;2023-06-10T10:18:46;0.20;;;0.20;;
10096;SDS011;5087;42.662;23.466;2023-06-10T10:21:22;0.30;;;0.30;;
10096;SDS011;5087;42.662;23.466;2023-06-10T10:23:53;0.30;;;0.30;;
10096;SDS011;5087;42.662;23.466;2023-06-10T10:26:30;0.10;;;0.10;;
10096;SDS011;5087;42.662;23.466;2023-06-10T10:29:02;0.20;;;0.20;;
10096;SDS011;5087;42.662;23.466;2023-06-10T10:31:36;0.20;;;0.20;;
10096;SDS011;5087;42.662;23.466;2023-06-10T10:34:06;0.20;;;0.20;;
10096;SDS011;5087;42.662;23.466;2023-06-10T10:36:35;0.20;;;0.20;;
10096;SDS011;5087;42.662;23.466;2023-06-10T10:39:07;0.20;;;0.20;;
10096;SDS011;5087;42.662;23.466;2023-06-10T10:41:37;0.10;;;0.10;;
10096;SDS011;5087;42.662;23.466;2023-06-10T10:44:05;0.27;;;0.27;;
10096;SDS011;5087;42.662;23.466;2023-06-10T10:46:41;0.10;;;0.10;;
10096;SDS011;5087;42.662;23.466;2023-06-10T10:49:10;0.17;;;0.17;;
10096;SDS011;5087;42.662;23.466;2023-06-10T10:51:55;0.20;;;0.20;;
10096;SDS011;5087;42.662;23.466;2023-06-10T10:54:30;0.10;;;0.10;;
10096;SDS011;5087;42.662;23.466;2023-06-10T10:57:12;0.10;;;0.10;;
10096;SDS011;5087;42.662;23.466;2023-06-10T10:59:54;0.53;;;0.53;;
10096;SDS011;5087;42.662;23.466;2023-06-10T11:02:35;0.30;;;0.30;;
10096;SDS011;5087;42.662;23.466;2023-06-10T11:05:08;0.10;;;0.10;;
10096;SDS011;5087;42.662;23.466;2023-06-10T11:07:37;0.10;;;0.10;;
10096;SDS011;5087;42.662;23.466;2023-06-10T11:10:08;0.17;;;0.17;;
10096;SDS011;5087;42.662;23.466;2023-06-10T11:12:49;0.10;;;0.10;;
10096;SDS011;5087;42.662;23.466;2023-06-10T11:15:22;0.20;;;0.20;;
10096;SDS011;5087;42.662;23.466;2023-06-10T11:18:11;0.10;;;0.10;;
10096;SDS011;5087;42.662;23.466;2023-06-10T11:20:56;0.10;;;0.10;;
10096;SDS011;5087;42.662;23.466;2023-06-10T11:23:34;0.10;;;0.10;;
10096;SDS011;5087;42.662;23.466;2023-06-10T11:26:18;0.10;;;0.10;;
10096;SDS011;5087;42.662;23.466;2023-06-10T11:29:05;0.10;;;0.10;;
10096;SDS011;5087;42.662;23.466;2023-06-10T11:31:41;0.10;;;0.10;;
10096;SDS011;5087;42.662;23.466;2023-06-10T11:34:15;0.10;;;0.10;;
10096;SDS011;5087;42.662;23.466;2023-06-10T11:36:50;0.20;;;0.20;;
10096;SDS011;5087;42.662;23.466;2023-06-10T11:39:19;0.53;;;0.53;;
10096;SDS011;5087;42.662;23.466;2023-06-10T11:41:48;0.10;;;0.10;;
10096;SDS011;5087;42.662;23.466;2023-06-10T11:44:19;0.10;;;0.10;;
10096;SDS011;5087;42.662;23.466;2023-06-10T11:46:47;0.10;;;0.10;;
10096;SDS011;5087;42.662;23.466;2023-06-10T11:49:16;0.10;;;0.10;;
10096;SDS011;5087;42.662;23.466;2023-06-10T11:51:44;0.20;;;0.20;;
10096;SDS011;5087;42.662;23.466;2023-06-10T11:54:18;0.10;;;0.10;;
10096;SDS011;5087;42.662;23.466;2023-06-10T11:56:46;0.10;;;0.10;;
10096;SDS011;5087;42.662;23.466;2023-06-10T11:59:14;0.10;;;0.10;;
10096;SDS011;5087;42.662;23.466;2023-06-10T12:01:44;0.10;;;0.10;;
10096;SDS011;5087;42.662;23.466;2023-06-10T12:04:12;0.10;;;0.10;;
10096;SDS011;5087;42.662;23.466;2023-06-10T12:06:44;0.20;;;0.20;;
10096;SDS011;5087;42.662;23.466;2023-06-10T12:09:17;0.10;;;0.10;;
10096;SDS011;5087;42.662;23.466;2023-06-10T12:11:45;0.10;;;0.10;;
10096;SDS011;5087;42.662;23.466;2023-06-10T12:14:16;0.10;;;0.10;;
10096;SDS011;5087;42.662;23.466;2023-06-10T12:17:05;0.10;;;0.10;;
10096;SDS011;5087;42.662;23.466;2023-06-10T12:19:37;0.10;;;0.10;;
10096;SDS011;5087;42.662;23.466;2023-06-10T12:22:05;0.10;;;0.10;;
10096;SDS011;5087;42.662;23.466;2023-06-10T12:24:32;0.10;;;0.10;;
10096;SDS011;5087;42.662;23.466;2023-06-10T12:27:00;0.10;;;0.10;;
10096;SDS011;5087;42.662;23.466;2023-06-10T12:29:27;0.10;;;0.10;;
10096;SDS011;5087;42.662;23.466;2023-06-10T12:31:56;0.33;;;0.33;;
10096;SDS011;5087;42.662;23.466;2023-06-10T12:34:29;0.20;;;0.20;;
10096;SDS011;5087;42.662;23.466;2023-06-10T12:36:58;0.10;;;0.10;;
10096;SDS011;5087;42.662;23.466;2023-06-10T12:39:26;0.20;;;0.20;;
10096;SDS011;5087;42.662;23.466;2023-06-10T12:41:54;0.10;;;0.10;;
10096;SDS011;5087;42.662;23.466;2023-06-10T12:44:31;0.10;;;0.10;;
10096;SDS011;5087;42.662;23.466;2023-06-10T12:47:00;0.10;;;0.10;;
10096;SDS011;5087;42.662;23.466;2023-06-10T12:49:35;0.10;;;0.10;;
10096;SDS011;5087;42.662;23.466;2023-06-10T12:52:03;0.20;;;0.20;;
10096;SDS011;5087;42.662;23.466;2023-06-10T12:54:30;0.10;;;0.10;;
10096;SDS011;5087;42.662;23.466;2023-06-10T12:56:58;0.57;;;0.57;;
10096;SDS011;5087;42.662;23.466;2023-06-10T12:59:26;0.10;;;0.10;;
10096;SDS011;5087;42.662;23.466;2023-06-10T13:01:54;0.10;;;0.10;;
10096;SDS011;5087;42.662;23.466;2023-06-10T13:04:21;0.10;;;0.10;;
10096;SDS011;5087;42.662;23.466;2023-06-10T13:06:50;0.10;;;0.10;;
10096;SDS011;5087;42.662;23.466;2023-06-10T13:09:17;0.10;;;0.10;;
10096;SDS011;5087;42.662;23.466;2023-06-10T13:11:44;0.10;;;0.10;;
10096;SDS011;5087;42.662;23.466;2023-06-10T13:14:12;0.20;;;0.20;;
10096;SDS011;5087;42.662;23.466;2023-06-10T13:16:40;0.10;;;0.10;;
10096;SDS011;5087;42.662;23.466;2023-06-10T15:42:54;1.00;;;1.00;;
10096;SDS011;5087;42.662;23.466;2023-06-10T15:45:22;0.90;;;0.90;;
10096;SDS011;5087;42.662;23.466;2023-06-10T15:47:49;1.00;;;1.00;;
10096;SDS011;5087;42.662;23.466;2023-06-10T15:50:16;1.27;;;1.27;;
10096;SDS011;5087;42.662;23.466;2023-06-10T15:52:52;1.00;;;1.00;;
10096;SDS011;5087;42.662;23.466;2023-06-10T15:55:26;1.13;;;1.13;;
10096;SDS011;5087;42.662;23.466;2023-06-10T15:57:56;0.80;;;0.80;;
10096;SDS011;5087;42.662;23.466;2023-06-10T16:00:29;0.90;;;0.90;;
10096;SDS011;5087;42.662;23.466;2023-06-10T16:02:57;0.80;;;0.80;;
10096;SDS011;5087;42.662;23.466;2023-06-10T16:08:42;0.80;;;0.80;;
10096;SDS011;5087;42.662;23.466;2023-06-10T16:11:09;0.97;;;0.97;;
10096;SDS011;5087;42.662;23.466;2023-06-10T16:13:45;1.40;;;1.30;;
10096;SDS011;5087;42.662;23.466;2023-06-10T16:16:17;1.27;;;1.03;;
10096;SDS011;5087;42.662;23.466;2023-06-10T16:18:56;0.90;;;0.90;;
10096;SDS011;5087;42.662;23.466;2023-06-10T16:21:25;1.10;;;1.10;;
10096;SDS011;5087;42.662;23.466;2023-06-10T16:23:52;1.00;;;1.00;;
10096;SDS011;5087;42.662;23.466;2023-06-10T16:26:20;0.93;;;0.93;;
10096;SDS011;5087;42.662;23.466;2023-06-10T16:28:53;0.90;;;0.90;;
10096;SDS011;5087;42.662;23.466;2023-06-10T16:31:29;1.00;;;1.00;;
10096;SDS011;5087;42.662;23.466;2023-06-10T16:33:57;1.40;;;1.40;;
10096;SDS011;5087;42.662;23.466;2023-06-10T16:36:27;1.10;;;1.10;;
10096;SDS011;5087;42.662;23.466;2023-06-10T16:38:54;1.10;;;1.10;;
10096;SDS011;5087;42.662;23.466;2023-06-10T16:41:25;1.10;;;1.10;;
10096;SDS011;5087;42.662;23.466;2023-06-10T16:43:54;1.00;;;1.00;;
10096;SDS011;5087;42.662;23.466;2023-06-10T16:46:25;1.00;;;1.00;;
10096;SDS011;5087;42.662;23.466;2023-06-10T16:48:58;1.00;;;1.00;;
10096;SDS011;5087;42.662;23.466;2023-06-10T16:51:26;0.90;;;0.90;;
10096;SDS011;5087;42.662;23.466;2023-06-10T16:53:53;1.37;;;1.37;;
10096;SDS011;5087;42.662;23.466;2023-06-10T16:56:24;0.60;;;0.60;;
10096;SDS011;5087;42.662;23.466;2023-06-10T16:58:52;0.60;;;0.60;;
10096;SDS011;5087;42.662;23.466;2023-06-10T17:01:23;0.50;;;0.50;;
10096;SDS011;5087;42.662;23.466;2023-06-10T17:03:55;1.60;;;0.73;;
10096;SDS011;5087;42.662;23.466;2023-06-10T17:06:33;0.50;;;0.50;;
10096;SDS011;5087;42.662;23.466;2023-06-10T17:09:01;0.43;;;0.43;;
10096;SDS011;5087;42.662;23.466;2023-06-10T17:11:31;0.40;;;0.40;;
10096;SDS011;5087;42.662;23.466;2023-06-10T17:13:59;0.50;;;0.50;;
10096;SDS011;5087;42.662;23.466;2023-06-10T17:16:27;0.50;;;0.50;;
10096;SDS011;5087;42.662;23.466;2023-06-10T17:18:55;0.40;;;0.40;;
10096;SDS011;5087;42.662;23.466;2023-06-10T17:21:24;0.67;;;0.67;;
10096;SDS011;5087;42.662;23.466;2023-06-10T17:23:52;0.40;;;0.40;;
10096;SDS011;5087;42.662;23.466;2023-06-10T17:26:25;0.40;;;0.40;;
10096;SDS011;5087;42.662;23.466;2023-06-10T17:28:53;0.60;;;0.60;;
10096;SDS011;5087;42.662;23.466;2023-06-10T17:31:24;0.40;;;0.40;;
10096;SDS011;5087;42.662;23.466;2023-06-10T17:33:53;0.30;;;0.30;;
10096;SDS011;5087;42.662;23.466;2023-06-10T17:36:20;0.87;;;0.87;;
10096;SDS011;5087;42.662;23.466;2023-06-10T17:38:48;0.20;;;0.20;;
10096;SDS011;5087;42.662;23.466;2023-06-10T17:41:16;0.40;;;0.40;;
10096;SDS011;5087;42.662;23.466;2023-06-10T17:43:45;0.20;;;0.20;;
10096;SDS011;5087;42.662;23.466;2023-06-10T17:46:13;0.20;;;0.20;;
10096;SDS011;5087;42.662;23.466;2023-06-10T17:48:44;0.30;;;0.30;;